Time;durP1;ratioP1;P1;durP2;ratioP2;P2;SDS_P1;SDS_P2;PMS_P1;PMS_P2;Temp;Humidity;BMP_temperature;BMP_pressure;BME280_temperature;BME280_humidity;BME280_pressure;Samples;Min_cycle;Max_cycle;Signal;HPM_P1;HPM_P2
2022/07/22 00:01:12;;;;;;;0.00;0.00;;;;;;;19.30;49.55;101721.38;7365655;19;20020;-61
2022/07/22 00:03:38;;;;;;;0.00;0.00;;;;;;;19.30;49.48;101725.81;7364865;19;20007;-61
2022/07/22 00:06:03;;;;;;;0.10;0.10;;;;;;;19.26;50.53;101719.81;7366157;19;20092;-62
2022/07/22 00:08:29;;;;;;;0.00;0.00;;;;;;;19.24;50.00;101724.28;7364248;19;20034;-61
2022/07/22 00:10:54;;;;;;;0.00;0.00;;;;;;;19.21;50.10;101723.53;7363624;19;20026;-62
2022/07/22 00:13:20;;;;;;;0.10;0.10;;;;;;;19.21;49.79;101718.25;7364269;19;20018;-63
2022/07/22 00:15:45;;;;;;;0.00;0.00;;;;;;;19.17;49.94;101717.53;7365090;19;20033;-62
2022/07/22 00:18:10;;;;;;;0.00;0.00;;;;;;;19.17;50.37;101713.09;7366061;19;21204;-62
2022/07/22 00:20:36;;;;;;;0.10;0.10;;;;;;;19.14;50.24;101707.06;7364296;19;20013;-62
2022/07/22 00:23:01;;;;;;;0.00;0.00;;;;;;;19.15;50.24;101708.78;7364976;19;20011;-62
2022/07/22 00:25:28;;;;;;;0.00;0.00;;;;;;;19.11;50.42;101708.06;7363009;19;20010;-61
2022/07/22 00:27:54;;;;;;;0.10;0.10;;;;;;;19.11;50.37;101710.72;7365020;19;20103;-62
2022/07/22 00:30:19;;;;;;;0.00;0.00;;;;;;;19.09;50.83;101709.03;7361710;19;20016;-61
2022/07/22 00:32:45;;;;;;;0.10;0.10;;;;;;;19.08;50.76;101707.34;7365004;19;20014;-60
2022/07/22 00:35:10;;;;;;;0.10;0.10;;;;;;;19.08;50.29;101702.03;7362619;19;20021;-61
2022/07/22 00:37:36;;;;;;;0.00;0.00;;;;;;;19.06;51.04;101703.88;7362633;19;20017;-62
2022/07/22 00:40:02;;;;;;;0.00;0.00;;;;;;;19.03;50.88;101704.00;7363775;19;20003;-61
2022/07/22 00:42:28;;;;;;;0.00;0.00;;;;;;;19.01;50.94;101711.13;7363934;19;20537;-62
2022/07/22 00:44:53;;;;;;;0.10;0.10;;;;;;;18.99;50.91;101713.00;7364026;19;20011;-62
2022/07/22 00:47:19;;;;;;;0.00;0.00;;;;;;;18.94;50.03;101713.19;7364772;19;20027;-62
2022/07/22 00:49:44;;;;;;;0.00;0.00;;;;;;;18.91;50.91;101706.25;7363490;19;20123;-61
2022/07/22 00:52:10;;;;;;;0.03;0.03;;;;;;;18.89;51.05;101716.03;7362525;19;20018;-62
2022/07/22 00:54:37;;;;;;;0.10;0.10;;;;;;;18.89;51.19;101713.38;7363392;19;20033;-62
2022/07/22 00:57:02;;;;;;;0.03;0.03;;;;;;;18.83;51.49;101696.91;7362584;19;20026;-60
2022/07/22 00:59:28;;;;;;;0.00;0.00;;;;;;;18.83;51.02;101708.34;7363510;19;20027;-62
2022/07/22 01:01:54;;;;;;;0.00;0.00;;;;;;;18.82;50.93;101705.78;7364036;19;20022;-62
2022/07/22 01:04:19;;;;;;;0.10;0.10;;;;;;;18.78;51.95;101699.72;7361786;19;20511;-62
2022/07/22 01:06:45;;;;;;;0.10;0.10;;;;;;;18.79;51.77;101708.53;7363056;19;20095;-62
2022/07/22 01:09:11;;;;;;;0.00;0.00;;;;;;;18.77;51.51;101707.75;7363041;19;20021;-61
2022/07/22 01:11:37;;;;;;;0.00;0.00;;;;;;;18.75;51.50;101704.28;7362856;19;20744;-62
2022/07/22 01:14:03;;;;;;;0.00;0.00;;;;;;;18.58;52.03;101683.78;7361745;19;20014;-61
2022/07/22 01:16:28;;;;;;;0.00;0.00;;;;;;;18.71;51.51;101703.56;7363040;19;20043;-62
2022/07/22 01:18:54;;;;;;;0.00;0.00;;;;;;;18.58;51.92;101682.00;7361894;19;20467;-62
2022/07/22 01:21:21;;;;;;;0.00;0.00;;;;;;;18.67;51.86;101694.84;7361881;19;20777;-62
2022/07/22 01:23:47;;;;;;;0.00;0.00;;;;;;;18.67;51.43;101686.91;7360260;19;20025;-61
2022/07/22 01:26:13;;;;;;;0.00;0.00;;;;;;;18.53;52.00;101656.66;7363946;19;20026;-62
2022/07/22 01:28:39;;;;;;;0.00;0.00;;;;;;;18.64;51.90;101671.16;7361671;19;20019;-61
2022/07/22 01:31:05;;;;;;;0.10;0.10;;;;;;;18.62;52.43;101666.88;7363889;19;20010;-62
2022/07/22 01:33:30;;;;;;;0.00;0.00;;;;;;;18.61;52.27;101671.28;7361806;19;20018;-61
2022/07/22 01:35:56;;;;;;;0.03;0.03;;;;;;;18.60;52.81;101666.03;7363776;19;20362;-62
2022/07/22 01:38:22;;;;;;;0.10;0.10;;;;;;;18.57;52.89;101674.13;7362960;19;20010;-62
2022/07/22 01:40:47;;;;;;;0.00;0.00;;;;;;;18.52;52.25;101666.38;7363884;19;20013;-62
2022/07/22 01:43:17;;;;;;;0.00;0.00;;;;;;;18.55;52.59;101673.31;7361729;19;20398;-62
2022/07/22 01:45:43;;;;;;;0.00;0.00;;;;;;;18.54;52.61;101668.94;7362604;19;20015;-62
2022/07/22 01:48:08;;;;;;;0.00;0.00;;;;;;;18.51;52.54;101666.44;7360566;19;20018;-62
2022/07/22 01:50:34;;;;;;;0.10;0.10;;;;;;;18.48;52.82;101663.91;7362549;19;20015;-61
2022/07/22 01:52:59;;;;;;;0.00;0.00;;;;;;;18.30;52.63;101639.94;7365507;19;20366;-62
2022/07/22 01:55:25;;;;;;;0.10;0.10;;;;;;;18.44;52.44;101670.25;7363128;19;20027;-62
2022/07/22 01:57:50;;;;;;;0.03;0.03;;;;;;;18.41;52.50;101664.16;7358360;19;20934;-62
2022/07/22 02:00:16;;;;;;;0.00;0.00;;;;;;;18.37;52.53;101662.56;7359554;19;20888;-61
2022/07/22 02:02:42;;;;;;;0.00;0.00;;;;;;;18.36;52.72;101670.56;7362806;19;20470;-61
2022/07/22 02:05:08;;;;;;;0.00;0.00;;;;;;;18.32;53.15;101664.53;7363712;19;20009;-61
2022/07/22 02:07:33;;;;;;;0.00;0.00;;;;;;;18.26;52.67;101663.91;7364196;19;20071;-62
2022/07/22 02:09:59;;;;;;;0.00;0.00;;;;;;;18.27;52.76;101661.19;7363234;19;20949;-61
2022/07/22 02:12:24;;;;;;;0.10;0.10;;;;;;;18.26;52.85;101654.19;7364363;19;20328;-62
2022/07/22 02:14:50;;;;;;;0.10;0.10;;;;;;;18.25;52.57;101660.41;7357676;19;20090;-61
2022/07/22 02:17:16;;;;;;;0.00;0.00;;;;;;;18.11;52.93;101638.94;7364024;19;20006;-61
2022/07/22 02:19:41;;;;;;;0.00;0.00;;;;;;;18.22;53.01;101657.88;7364655;19;20027;-62
2022/07/22 02:22:07;;;;;;;0.00;0.00;;;;;;;18.20;53.09;101659.72;7359885;19;20034;-62
2022/07/22 02:24:35;;;;;;;0.00;0.00;;;;;;;18.19;53.80;101655.34;7362949;19;20034;-61
2022/07/22 02:27:01;;;;;;;0.00;0.00;;;;;;;18.18;53.93;101661.56;7363944;19;21304;-62
2022/07/22 02:29:27;;;;;;;0.10;0.10;;;;;;;18.18;53.40;101661.56;7361743;19;20017;-62
2022/07/22 02:31:53;;;;;;;0.00;0.00;;;;;;;18.15;53.33;101666.97;7362530;19;20125;-62
2022/07/22 02:34:18;;;;;;;0.00;0.00;;;;;;;18.13;53.24;101658.22;7362459;19;20074;-62
2022/07/22 02:36:44;;;;;;;0.00;0.00;;;;;;;18.13;53.28;101652.94;7361348;19;20640;-62
2022/07/22 02:39:09;;;;;;;0.08;0.08;;;;;;;18.07;53.30;101647.91;7360352;19;20338;-61
2022/07/22 02:41:34;;;;;;;0.00;0.00;;;;;;;17.96;53.44;101618.38;7362392;19;20039;-62
2022/07/22 02:44:00;;;;;;;0.03;0.03;;;;;;;18.07;53.91;101643.47;7360444;19;20014;-61
2022/07/22 02:46:28;;;;;;;0.10;0.10;;;;;;;18.06;53.59;101641.75;7360952;19;20015;-61
2022/07/22 02:48:54;;;;;;;0.00;0.00;;;;;;;18.06;52.44;101635.59;7358821;19;20336;-59
2022/07/22 02:51:20;;;;;;;0.10;0.10;;;;;;;18.04;53.67;101632.16;7361747;19;20030;-62
2022/07/22 02:53:45;;;;;;;0.00;0.00;;;;;;;18.04;54.09;101637.44;7362800;19;20029;-62
2022/07/22 02:56:11;;;;;;;0.00;0.00;;;;;;;18.01;54.01;101642.84;7361752;19;21538;-60
2022/07/22 02:58:36;;;;;;;0.00;0.00;;;;;;;18.01;54.02;101632.28;7361684;19;20015;-62
2022/07/22 03:01:02;;;;;;;0.00;0.00;;;;;;;18.00;54.12;101628.78;7362493;19;20009;-62
2022/07/22 03:03:27;;;;;;;0.03;0.03;;;;;;;17.99;54.14;101631.47;7355098;19;20018;-61
2022/07/22 03:05:52;;;;;;;0.00;0.00;;;;;;;17.97;53.90;101641.25;7357838;19;20083;-62
2022/07/22 03:08:18;;;;;;;0.00;0.00;;;;;;;17.96;54.05;101634.25;7361482;19;20026;-62
2022/07/22 03:10:43;;;;;;;0.00;0.00;;;;;;;17.94;54.35;101633.44;7361002;19;20142;-62
2022/07/22 03:13:09;;;;;;;0.00;0.00;;;;;;;17.92;54.65;101622.91;7363110;19;20006;-62
2022/07/22 03:15:34;;;;;;;0.00;0.00;;;;;;;17.91;54.20;101631.78;7360998;19;20134;-62
2022/07/22 03:18:00;;;;;;;0.10;0.10;;;;;;;17.89;53.93;101628.31;7360615;19;20014;-62
2022/07/22 03:20:26;;;;;;;0.08;0.08;;;;;;;17.89;54.57;101630.94;7351334;19;20007;-62
2022/07/22 03:22:51;;;;;;;0.10;0.10;;;;;;;17.87;54.56;101622.25;7357806;19;20014;-62
2022/07/22 03:25:17;;;;;;;0.03;0.03;;;;;;;17.83;54.17;101613.56;7361063;19;20010;-62
2022/07/22 03:27:42;;;;;;;0.00;0.00;;;;;;;17.81;54.05;101607.47;7367532;19;20436;-61
2022/07/22 03:30:08;;;;;;;0.00;0.00;;;;;;;17.83;54.60;101618.84;7368861;19;20474;-61
2022/07/22 03:32:33;;;;;;;0.00;0.00;;;;;;;17.81;54.53;101609.28;7369232;19;20007;-62
2022/07/22 03:34:59;;;;;;;0.00;0.00;;;;;;;17.81;54.44;101598.69;7369166;19;20017;-62
2022/07/22 03:37:24;;;;;;;0.10;0.10;;;;;;;17.69;54.54;101575.34;7366817;19;20102;-62
2022/07/22 03:39:50;;;;;;;0.00;0.00;;;;;;;17.80;54.58;101597.84;7367254;19;20561;-62
2022/07/22 03:42:15;;;;;;;0.00;0.00;;;;;;;17.79;55.07;101601.41;7367999;19;20010;-61
2022/07/22 03:44:41;;;;;;;0.00;0.00;;;;;;;17.78;54.87;101589.09;7366315;19;20015;-62
2022/07/22 03:47:06;;;;;;;0.00;0.00;;;;;;;17.78;54.93;101610.22;7368032;19;20007;-62
2022/07/22 03:49:32;;;;;;;0.08;0.08;;;;;;;17.76;55.02;101601.50;7364392;19;20010;-62
2022/07/22 03:51:58;;;;;;;0.00;0.00;;;;;;;17.75;54.81;101605.09;7367066;19;20031;-62
2022/07/22 03:54:23;;;;;;;0.10;0.10;;;;;;;17.74;54.87;101592.81;7367479;19;20021;-61
2022/07/22 03:56:49;;;;;;;0.00;0.00;;;;;;;17.58;54.73;101575.75;7367858;19;20044;-61
2022/07/22 03:59:15;;;;;;;0.00;0.00;;;;;;;17.56;54.83;101567.03;7367902;19;20010;-61
2022/07/22 04:01:41;;;;;;;0.00;0.00;;;;;;;17.69;54.56;101592.09;7366884;19;20077;-62
2022/07/22 04:04:06;;;;;;;0.00;0.00;;;;;;;17.71;54.66;101582.31;7367338;19;20010;-62
2022/07/22 04:06:32;;;;;;;0.00;0.00;;;;;;;17.70;54.48;101592.94;7364558;19;20006;-62
2022/07/22 04:08:57;;;;;;;0.00;0.00;;;;;;;17.70;54.29;101588.50;7366355;19;20010;-61
2022/07/22 04:11:23;;;;;;;0.00;0.00;;;;;;;17.68;54.85;101582.41;7367717;19;20010;-62
2022/07/22 04:13:48;;;;;;;0.10;0.10;;;;;;;17.67;55.22;101575.41;7367524;19;20010;-61
2022/07/22 04:16:13;;;;;;;0.00;0.00;;;;;;;17.67;55.42;101575.41;7366686;19;20038;-62
2022/07/22 04:18:39;;;;;;;0.00;0.00;;;;;;;17.65;54.81;101566.69;7367810;19;20783;-61
2022/07/22 04:21:04;;;;;;;0.00;0.00;;;;;;;17.63;55.20;101579.94;7365128;19;20006;-61
2022/07/22 04:23:30;;;;;;;0.00;0.00;;;;;;;17.62;55.28;101575.59;7366435;19;20018;-61
2022/07/22 04:25:55;;;;;;;0.00;0.00;;;;;;;17.60;55.30;101585.34;7367558;19;20014;-62
2022/07/22 04:28:21;;;;;;;0.00;0.00;;;;;;;17.54;54.99;101564.47;7367216;19;20078;-61
2022/07/22 04:30:46;;;;;;;0.08;0.08;;;;;;;17.57;54.91;101580.19;7365444;19;20021;-62
2022/07/22 04:33:12;;;;;;;0.00;0.00;;;;;;;17.55;55.25;101570.59;7366829;19;20031;-62
2022/07/22 04:35:37;;;;;;;0.00;0.00;;;;;;;17.54;55.27;101569.75;7366578;19;20010;-61
2022/07/22 04:38:03;;;;;;;0.00;0.00;;;;;;;17.47;54.34;101562.97;7364681;19;20039;-62
2022/07/22 04:40:28;;;;;;;0.00;0.00;;;;;;;17.51;54.90;101569.00;7366179;19;20416;-62
2022/07/22 04:42:54;;;;;;;0.10;0.10;;;;;;;17.51;55.26;101569.00;7366231;19;20501;-62
2022/07/22 04:45:19;;;;;;;0.10;0.10;;;;;;;17.47;54.15;101564.75;7365025;19;20022;-62
2022/07/22 04:47:45;;;;;;;0.00;0.00;;;;;;;17.45;55.69;101562.16;7365768;19;20010;-62
2022/07/22 04:50:10;;;;;;;0.00;0.00;;;;;;;17.36;55.63;101554.59;7366244;19;20009;-62
2022/07/22 04:52:36;;;;;;;0.08;0.08;;;;;;;17.46;55.57;101560.38;7365858;19;20465;-62
2022/07/22 04:55:01;;;;;;;0.00;0.00;;;;;;;17.45;55.82;101561.31;7366395;19;20026;-62
2022/07/22 04:57:26;;;;;;;0.00;0.00;;;;;;;17.44;55.87;101562.25;7365097;19;20017;-62
2022/07/22 04:59:52;;;;;;;0.10;0.10;;;;;;;17.44;55.41;101559.59;7367015;19;20734;-62
2022/07/22 05:02:19;;;;;;;0.10;0.10;;;;;;;17.42;56.17;101559.63;7365877;19;20010;-62
2022/07/22 05:04:44;;;;;;;0.00;0.00;;;;;;;17.42;56.23;101558.78;7365402;19;20106;-62
2022/07/22 05:07:10;;;;;;;0.00;0.00;;;;;;;17.30;56.00;101538.97;7364988;19;20841;-62
2022/07/22 05:09:35;;;;;;;0.10;0.10;;;;;;;17.41;55.97;101557.06;7365021;19;20014;-62
2022/07/22 05:12:01;;;;;;;0.10;0.10;;;;;;;17.38;56.02;101553.59;7365444;19;20010;-62
2022/07/22 05:14:26;;;;;;;0.00;0.00;;;;;;;17.38;55.72;101553.59;7364521;19;20350;-62
2022/07/22 05:16:51;;;;;;;0.00;0.00;;;;;;;17.37;56.26;101557.16;7366009;19;20027;-62
2022/07/22 05:19:17;;;;;;;0.00;0.00;;;;;;;17.37;56.20;101551.03;7365987;19;20082;-62
2022/07/22 05:21:42;;;;;;;0.00;0.00;;;;;;;17.36;56.13;101552.81;7365516;19;20033;-62
2022/07/22 05:24:08;;;;;;;0.00;0.00;;;;;;;17.35;56.37;101553.72;7362634;19;20109;-62
2022/07/22 05:26:33;;;;;;;0.00;0.00;;;;;;;17.28;56.29;101532.88;7363506;19;20825;-62
2022/07/22 05:28:59;;;;;;;0.05;0.05;;;;;;;17.35;56.35;101548.44;7365741;19;20824;-62
2022/07/22 05:31:24;;;;;;;0.00;0.00;;;;;;;17.34;54.70;101557.28;7363404;19;20015;-61
2022/07/22 05:33:51;;;;;;;0.00;0.00;;;;;;;17.34;55.01;101557.28;7364860;19;20019;-61
2022/07/22 05:36:18;;;;;;;0.05;0.05;;;;;;;17.29;55.58;101542.53;7364054;19;20842;-62
2022/07/22 05:38:43;;;;;;;0.00;0.00;;;;;;;17.31;56.23;101552.13;7365200;19;20015;-62
2022/07/22 05:41:08;;;;;;;0.00;0.00;;;;;;;17.28;55.31;101552.22;7365774;19;20082;-62
2022/07/22 05:43:34;;;;;;;0.00;0.00;;;;;;;17.29;55.55;101553.09;7362860;19;20014;-62
2022/07/22 05:45:59;;;;;;;0.00;0.00;;;;;;;17.29;56.25;101551.31;7365228;19;20006;-62
2022/07/22 05:48:25;;;;;;;0.00;0.00;;;;;;;17.28;55.52;101549.56;7363129;19;20038;-61
2022/07/22 05:50:50;;;;;;;0.00;0.00;;;;;;;17.29;54.94;101545.19;7364697;19;20014;-62
2022/07/22 05:53:16;;;;;;;0.00;0.00;;;;;;;17.28;55.51;101546.06;7364624;19;20049;-62
2022/07/22 05:55:41;;;;;;;0.08;0.08;;;;;;;17.26;55.53;101540.88;7365253;19;20006;-62
2022/07/22 05:58:07;;;;;;;0.00;0.00;;;;;;;17.29;55.88;101543.41;7359597;19;20009;-62
2022/07/22 06:00:32;;;;;;;0.10;0.10;;;;;;;17.30;55.92;101538.97;7363092;19;20018;-61
2022/07/22 06:02:57;;;;;;;0.10;0.10;;;;;;;17.21;55.26;101529.63;7364189;19;20608;-62
2022/07/22 06:05:23;;;;;;;0.00;0.00;;;;;;;17.34;55.26;101546.72;7362974;19;20016;-62
2022/07/22 06:07:48;;;;;;;0.00;0.00;;;;;;;17.35;54.95;101543.16;7362814;19;20534;-62
2022/07/22 06:10:14;;;;;;;0.00;0.00;;;;;;;17.35;55.57;101537.88;7361607;19;20014;-62
2022/07/22 06:12:39;;;;;;;0.00;0.00;;;;;;;17.31;56.34;101512.50;7360865;19;20011;-62
2022/07/22 06:15:05;;;;;;;0.00;0.00;;;;;;;17.47;56.42;101533.06;7359838;19;20011;-62
2022/07/22 06:17:31;;;;;;;0.10;0.10;;;;;;;17.51;55.12;101532.88;7359745;19;20022;-62
2022/07/22 06:19:56;;;;;;;0.00;0.00;;;;;;;17.56;55.25;101535.34;7357553;19;20044;-62
2022/07/22 06:22:22;;;;;;;0.08;0.08;;;;;;;17.60;55.77;101532.53;7361998;19;20014;-62
2022/07/22 06:24:48;;;;;;;0.00;0.00;;;;;;;17.68;55.20;101536.66;7362866;19;20010;-62
2022/07/22 06:27:14;;;;;;;0.00;0.00;;;;;;;17.71;55.38;101529.47;7363841;19;20022;-62
2022/07/22 06:29:40;;;;;;;0.00;0.00;;;;;;;17.79;55.26;101532.72;7361002;19;20010;-62
2022/07/22 06:32:06;;;;;;;0.00;0.00;;;;;;;17.85;54.97;101529.81;7363157;19;20038;-60
2022/07/22 06:34:32;;;;;;;0.10;0.10;;;;;;;17.90;55.01;101527.00;7364276;19;21035;-62
2022/07/22 06:36:57;;;;;;;0.00;0.00;;;;;;;17.97;55.32;101522.31;7358594;19;20027;-62
2022/07/22 06:39:23;;;;;;;0.00;0.00;;;;;;;18.04;55.44;101521.13;7362745;19;20450;-62
2022/07/22 06:41:48;;;;;;;0.00;0.00;;;;;;;18.08;55.27;101512.16;7361308;19;20086;-62
2022/07/22 06:44:13;;;;;;;0.00;0.00;;;;;;;18.13;55.31;101520.78;7361612;19;20014;-62
2022/07/22 06:46:39;;;;;;;0.10;0.10;;;;;;;18.17;54.98;101514.44;7362253;19;20740;-62
2022/07/22 06:49:04;;;;;;;0.10;0.10;;;;;;;18.22;54.92;101520.41;7358794;19;20343;-62
2022/07/22 06:51:30;;;;;;;0.10;0.10;;;;;;;18.26;55.29;101516.72;7334921;19;20014;-62
2022/07/22 06:53:55;;;;;;;0.05;0.05;;;;;;;18.32;55.30;101516.44;7361548;19;20570;-62
2022/07/22 06:56:20;;;;;;;0.10;0.10;;;;;;;18.33;55.33;101507.59;7359991;19;20015;-62
2022/07/22 06:58:46;;;;;;;0.10;0.10;;;;;;;18.41;55.00;101521.34;7362581;19;20049;-61
2022/07/22 07:01:11;;;;;;;0.00;0.00;;;;;;;18.42;54.85;101509.84;7360370;19;21018;-62
2022/07/22 07:03:37;;;;;;;0.00;0.00;;;;;;;18.52;55.25;101517.38;7370595;19;20015;-62
2022/07/22 07:06:03;;;;;;;0.00;0.00;;;;;;;18.58;54.98;101522.41;7364356;19;20014;-62
2022/07/22 07:08:28;;;;;;;0.00;0.00;;;;;;;18.35;54.68;101471.38;7368070;19;20358;-62
2022/07/22 07:10:54;;;;;;;0.00;0.00;;;;;;;18.71;54.51;101526.28;7365702;19;20018;-62
2022/07/22 07:13:19;;;;;;;0.00;0.00;;;;;;;18.78;54.40;101534.81;7368244;19;20029;-63
2022/07/22 07:15:44;;;;;;;0.10;0.10;;;;;;;18.83;54.53;101528.38;7370159;19;20853;-63
2022/07/22 07:18:10;;;;;;;0.00;0.00;;;;;;;18.89;54.30;101530.75;7366243;19;20014;-62
2022/07/22 07:20:36;;;;;;;0.00;0.00;;;;;;;18.97;53.89;101534.88;7366036;19;20044;-62
2022/07/22 07:23:02;;;;;;;0.00;0.00;;;;;;;19.03;53.65;101534.59;7365611;19;20368;-63
2022/07/22 07:25:27;;;;;;;0.10;0.10;;;;;;;19.09;53.64;101539.59;7368878;19;20343;-62
2022/07/22 07:27:53;;;;;;;0.00;0.00;;;;;;;19.14;53.79;101538.47;7365093;19;20038;-62
2022/07/22 07:30:18;;;;;;;0.00;0.00;;;;;;;19.10;53.49;101521.00;7366762;19;20014;-62
2022/07/22 07:32:44;;;;;;;0.00;0.00;;;;;;;19.26;53.10;101534.44;7368338;19;20027;-62
2022/07/22 07:35:10;;;;;;;0.10;0.10;;;;;;;19.31;53.64;101535.06;7367814;19;20006;-62
2022/07/22 07:37:35;;;;;;;0.00;0.00;;;;;;;19.37;52.96;101540.09;7365786;19;20013;-62
2022/07/22 07:40:00;;;;;;;0.00;0.00;;;;;;;19.43;53.03;101531.84;7367264;19;20010;-62
2022/07/22 07:42:26;;;;;;;0.10;0.10;;;;;;;19.49;52.76;101529.84;7364828;19;20010;-62
2022/07/22 07:44:51;;;;;;;0.00;0.00;;;;;;;19.54;53.12;101527.84;7365977;19;20014;-62
2022/07/22 07:47:20;;;;;;;0.00;0.00;;;;;;;19.58;52.75;101526.78;7365438;19;20014;-62
2022/07/22 07:49:47;;;;;;;0.08;0.08;;;;;;;19.64;52.90;101521.22;7364944;19;20020;-62
2022/07/22 07:52:13;;;;;;;0.00;0.00;;;;;;;19.67;52.69;101516.63;7361969;19;20015;-62
2022/07/22 07:54:39;;;;;;;0.10;0.10;;;;;;;19.72;52.73;101518.19;7367037;19;20034;-62
2022/07/22 07:57:06;;;;;;;0.10;0.10;;;;;;;19.76;52.14;101523.25;7365453;19;20014;-62
2022/07/22 07:59:31;;;;;;;0.10;0.10;;;;;;;19.80;52.46;101521.31;7365751;19;20034;-62
2022/07/22 08:01:57;;;;;;;0.00;0.00;;;;;;;19.82;52.30;101520.34;7364961;19;20018;-61
2022/07/22 08:04:22;;;;;;;0.00;0.00;;;;;;;19.87;51.91;101522.75;7366042;19;20031;-62
2022/07/22 08:06:50;;;;;;;0.00;0.00;;;;;;;19.91;52.35;101527.81;7365769;19;20035;-62
2022/07/22 08:09:16;;;;;;;0.00;0.00;;;;;;;19.96;52.32;101523.16;7366621;19;20011;-62
2022/07/22 08:11:41;;;;;;;0.10;0.10;;;;;;;20.03;52.20;101515.78;7366149;19;20026;-62
2022/07/22 08:14:06;;;;;;;0.10;0.10;;;;;;;20.10;52.18;101524.28;7364309;19;20014;-62
2022/07/22 08:16:32;;;;;;;0.10;0.10;;;;;;;20.06;52.01;101504.16;7365881;19;20014;-62
2022/07/22 08:18:57;;;;;;;0.10;0.10;;;;;;;20.20;51.69;101521.09;7364726;19;20014;-62
2022/07/22 08:21:25;;;;;;;0.00;0.00;;;;;;;20.25;51.53;101518.22;7367445;19;20021;-62
2022/07/22 08:23:50;;;;;;;;;;;;;;;20.43;50.97;101527.91;7365690;19;20018;-62
2022/07/22 08:26:15;;;;;;;0.00;0.00;;;;;;;20.45;51.63;101526.03;7366583;19;20068;-62
2022/07/22 08:28:41;;;;;;;0.10;0.10;;;;;;;20.53;51.43;101522.16;7362132;19;20002;-62
2022/07/22 08:31:06;;;;;;;0.10;0.10;;;;;;;20.62;51.04;101524.31;7366017;19;20007;-62
2022/07/22 08:33:32;;;;;;;0.03;0.03;;;;;;;20.69;50.86;101516.00;7367432;19;20010;-62
2022/07/22 08:35:57;;;;;;;0.10;0.10;;;;;;;20.78;51.12;101506.66;7365540;19;20413;-62
2022/07/22 08:38:23;;;;;;;0.10;0.10;;;;;;;20.88;50.67;101515.88;7366102;19;20642;-62
2022/07/22 08:40:48;;;;;;;0.00;0.00;;;;;;;20.97;50.47;101512.72;7363936;19;20367;-63
2022/07/22 08:43:14;;;;;;;0.10;0.10;;;;;;;21.08;50.44;101517.44;7365540;19;20015;-62
2022/07/22 08:45:40;;;;;;;0.00;0.00;;;;;;;21.18;50.59;101510.72;7362985;19;20015;-62
2022/07/22 08:48:06;;;;;;;0.00;0.00;;;;;;;21.27;50.21;101504.03;7366673;19;20017;-62
2022/07/22 08:50:31;;;;;;;0.00;0.00;;;;;;;21.37;49.94;101507.94;7362964;19;20003;-62
2022/07/22 08:52:57;;;;;;;0.10;0.10;;;;;;;21.49;49.54;101504.63;7365495;19;20010;-62
2022/07/22 08:55:23;;;;;;;0.10;0.10;;;;;;;21.63;49.43;101505.63;7364058;19;20038;-62
2022/07/22 08:57:50;;;;;;;0.10;0.10;;;;;;;21.76;49.22;101506.66;7365071;19;20011;-61
2022/07/22 09:00:20;;;;;;;0.00;0.00;;;;;;;21.95;49.21;101501.16;7364906;19;20010;-62
2022/07/22 09:02:46;;;;;;;0.00;0.00;;;;;;;22.06;48.29;101503.22;7361201;19;20039;-62
2022/07/22 09:05:14;;;;;;;0.03;0.03;;;;;;;22.22;47.41;101506.72;7367060;19;20007;-62
2022/07/22 09:07:42;;;;;;;0.08;0.08;;;;;;;22.36;47.60;101504.09;7365410;19;20007;-63
2022/07/22 09:10:14;;;;;;;0.10;0.10;;;;;;;22.52;47.50;101498.72;7360220;19;20010;-61
2022/07/22 09:12:59;;;;;;;0.10;0.10;;;;;;;22.68;47.71;101490.66;7362781;19;20654;-62
2022/07/22 09:15:27;;;;;;;0.10;0.10;;;;;;;22.86;46.79;101505.50;7364306;19;20018;-62
2022/07/22 09:17:53;;;;;;;0.10;0.10;;;;;;;22.98;46.29;101504.78;7362679;19;20034;-61
2022/07/22 09:20:18;;;;;;;0.05;0.05;;;;;;;23.15;45.88;101508.19;7355317;19;20010;-62
2022/07/22 09:22:46;;;;;;;0.08;0.08;;;;;;;23.33;44.90;101498.19;7362279;19;20031;-62
2022/07/22 09:25:32;;;;;;;0.10;0.10;;;;;;;23.52;45.65;101499.59;7364456;19;20010;-62
2022/07/22 09:28:07;;;;;;;0.10;0.10;;;;;;;23.72;45.77;101501.00;7264053;19;2004487;-62
2022/07/22 09:30:54;;;;;;;0.03;0.03;;;;;;;23.89;44.65;101499.88;7363644;19;20032;-62
2022/07/22 09:33:20;;;;;;;0.10;0.10;;;;;;;24.06;44.46;101496.94;7365865;19;20457;-62
2022/07/22 09:35:47;;;;;;;0.10;0.10;;;;;;;24.30;43.76;101497.13;7363722;19;20033;-62
2022/07/22 09:38:15;;;;;;;0.10;0.10;;;;;;;24.48;42.74;101489.72;7366526;19;20046;-62
2022/07/22 09:40:46;;;;;;;0.03;0.03;;;;;;;24.74;43.28;101495.06;7363514;19;20007;-62
2022/07/22 09:43:15;;;;;;;0.17;0.17;;;;;;;24.82;41.63;101484.69;7366050;19;20752;-62
2022/07/22 09:45:46;;;;;;;0.08;0.08;;;;;;;24.99;42.47;101484.38;7362551;19;20818;-62
2022/07/22 09:48:12;;;;;;;0.10;0.10;;;;;;;25.09;40.83;101472.09;7363423;19;20010;-61
2022/07/22 09:50:37;;;;;;;0.10;0.10;;;;;;;25.44;40.90;101478.50;7359616;19;20466;-62
2022/07/22 09:53:03;;;;;;;0.10;0.10;;;;;;;25.71;39.95;101472.97;7365346;19;20002;-62
2022/07/22 09:55:29;;;;;;;0.10;0.10;;;;;;;26.07;39.68;101475.59;7363637;19;20377;-62
2022/07/22 09:57:56;;;;;;;0.10;0.10;;;;;;;26.42;40.60;101482.78;7363124;19;20047;-62
2022/07/22 10:00:23;;;;;;;;;;;;;;;27.00;42.29;101470.16;7365120;19;20009;-62
2022/07/22 10:02:54;;;;;;;0.05;0.05;;;;;;;27.32;38.06;101472.09;7365732;19;19918;-62
2022/07/22 10:05:30;;;;;;;0.05;0.05;;;;;;;27.59;38.84;101471.72;7361713;19;20006;-62
2022/07/22 10:07:57;;;;;;;0.10;0.10;;;;;;;27.73;38.20;101470.56;7363452;19;20105;-62
2022/07/22 10:10:25;;;;;;;0.10;0.10;;;;;;;27.94;38.10;101463.44;7363596;19;20134;-62
2022/07/22 10:12:52;;;;;;;0.10;0.10;;;;;;;28.05;35.74;101460.69;7363951;19;20568;-62
2022/07/22 10:15:17;;;;;;;;;;;;;;;28.43;39.69;101465.50;7361643;19;20569;-61
2022/07/22 10:17:48;;;;;;;0.10;0.10;;;;;;;28.49;36.36;101458.78;7364741;19;19937;-60
2022/07/22 10:20:21;;;;;;;0.10;0.10;;;;;;;28.68;37.23;101461.53;7360281;19;20006;-62
2022/07/22 10:22:52;;;;;;;0.10;0.10;;;;;;;28.88;36.10;101458.94;7364960;19;20044;-61
2022/07/22 10:25:19;;;;;;;0.10;0.10;;;;;;;28.96;35.62;101461.84;7360950;19;20038;-61
2022/07/22 10:27:49;;;;;;;0.10;0.10;;;;;;;29.06;35.80;101457.34;7362953;19;20582;-61
2022/07/22 10:30:18;;;;;;;0.00;0.00;;;;;;;29.28;35.52;101456.28;7361853;19;20049;-62
2022/07/22 10:32:44;;;;;;;0.10;0.10;;;;;;;29.46;35.84;101454.63;7362919;19;20010;-61
2022/07/22 10:35:09;;;;;;;0.00;0.00;;;;;;;29.74;34.91;101441.34;7360942;19;20062;-61
2022/07/22 10:37:35;;;;;;;0.10;0.10;;;;;;;30.09;34.58;101443.47;7359534;19;20007;-62
2022/07/22 10:40:22;;;;;;;0.10;0.10;;;;;;;30.63;35.86;101443.81;7360576;19;20012;-61
2022/07/22 10:43:00;;;;;;;0.10;0.10;;;;;;;31.03;34.99;101454.31;7256285;19;2004297;-62
2022/07/22 10:45:27;;;;;;;0.00;0.00;;;;;;;31.25;33.69;101448.50;7360397;19;20011;-62
2022/07/22 10:47:55;;;;;;;0.10;0.10;;;;;;;31.42;31.23;101435.19;7354037;19;20886;-62
2022/07/22 10:50:35;;;;;;;0.03;0.03;;;;;;;31.75;32.76;101448.03;7359757;19;20264;-62
2022/07/22 10:53:01;;;;;;;0.00;0.00;;;;;;;31.73;31.40;101443.78;7357454;19;20014;-62
2022/07/22 10:55:27;;;;;;;0.03;0.03;;;;;;;31.80;31.81;101441.31;7358599;19;20835;-61
2022/07/22 10:57:52;;;;;;;0.10;0.10;;;;;;;31.91;31.97;101441.09;7357427;19;20015;-62
2022/07/22 11:00:18;;;;;;;0.10;0.10;;;;;;;32.11;30.24;101442.63;7358910;19;20014;-62
2022/07/22 11:02:44;;;;;;;0.10;0.10;;;;;;;32.43;31.20;101441.19;7358803;19;20031;-62
2022/07/22 11:05:09;;;;;;;0.00;0.00;;;;;;;32.84;29.85;101430.56;7358560;19;20759;-62
2022/07/22 11:07:45;;;;;;;0.00;0.00;;;;;;;33.52;31.69;101433.22;7355553;19;20010;-61
2022/07/22 11:10:16;;;;;;;0.00;0.00;;;;;;;34.00;31.25;101428.84;7354156;19;20473;-62
2022/07/22 11:12:42;;;;;;;0.00;0.00;;;;;;;34.36;29.51;101425.75;7348846;19;20604;-61
2022/07/22 11:15:08;;;;;;;0.07;0.07;;;;;;;34.86;27.27;101439.03;7349457;19;27289;-62
2022/07/22 11:17:38;;;;;;;0.00;0.00;;;;;;;35.27;28.34;101430.69;7347776;19;20119;-62
2022/07/22 11:20:06;;;;;;;0.00;0.00;;;;;;;35.39;27.01;101433.88;7346207;19;20014;-62
2022/07/22 11:22:32;;;;;;;0.10;0.10;;;;;;;35.53;26.06;101430.38;7351260;19;20034;-61